createdAt,value
2022-11-27T00:02:24.047Z,100099.78
2022-11-27T00:04:50.758Z,100102.19
2022-11-27T00:07:17.478Z,100077.38
2022-11-27T00:09:44.258Z,100047.63
2022-11-27T00:12:11.088Z,100019.50
2022-11-27T00:14:37.738Z,100079.69
2022-11-27T00:17:04.558Z,100088.00
2022-11-27T00:19:31.343Z,100084.28
2022-11-27T00:21:57.982Z,100085.03
2022-11-27T00:24:24.746Z,100093.81
2022-11-27T00:26:51.583Z,100095.47
2022-11-27T00:29:18.293Z,100093.81
2022-11-27T00:31:45.212Z,100100.91
2022-11-27T00:34:11.946Z,100088.56
2022-11-27T00:36:39.286Z,100081.28
2022-11-27T00:39:07.174Z,100086.69
2022-11-27T00:41:34.378Z,100092.94
2022-11-27T00:44:01.386Z,100100.91
2022-11-27T00:46:30.278Z,100099.22
2022-11-27T00:49:02.157Z,100102.13
2022-11-27T00:51:29.503Z,100105.97
2022-11-27T00:53:56.855Z,100106.13
2022-11-27T00:56:29.357Z,100092.59
2022-11-27T00:58:56.681Z,100084.28
2022-11-27T01:01:29.394Z,100089.69
2022-11-27T01:03:57.739Z,100090.91
2022-11-27T01:06:25.371Z,100103.91
2022-11-27T01:08:52.348Z,100111.38
2022-11-27T01:11:25.802Z,100109.69
2022-11-27T01:13:53.172Z,100112.97
2022-11-27T01:16:25.272Z,100105.84
2022-11-27T01:18:54.798Z,100106.97
2022-11-27T01:21:22.496Z,100113.72
2022-11-27T01:23:50.202Z,100124.81
2022-11-27T01:26:18.302Z,100116.63
2022-11-27T01:28:45.890Z,100119.50
2022-11-27T01:31:19.226Z,100110.63
2022-11-27T01:33:46.746Z,100117.75
2022-11-27T01:36:14.817Z,100114.00
2022-11-27T01:38:41.985Z,100116.03
2022-11-27T01:41:30.368Z,100111.94
2022-11-27T01:44:02.376Z,100115.69
2022-11-27T01:46:33.690Z,100118.41
2022-11-27T01:49:13.333Z,100116.03
2022-11-27T01:51:58.590Z,100119.50
2022-11-27T01:54:28.777Z,100122.88
2022-11-27T01:56:58.473Z,100134.75
2022-11-27T01:59:25.417Z,100123.06
2022-11-27T02:01:52.156Z,100119.34
2022-11-27T02:04:19.668Z,100119.13
2022-11-27T02:06:46.880Z,100127.00
2022-11-27T02:09:13.804Z,100140.09
2022-11-27T02:11:59.191Z,100136.25
2022-11-27T02:14:56.649Z,100137.91
2022-11-27T02:17:33.999Z,100133.53
2022-11-27T02:20:22.466Z,100128.47
2022-11-27T02:22:54.879Z,100141.19
2022-11-27T02:25:56.980Z,100130.84
2022-11-27T02:28:42.850Z,100135.59
2022-11-27T02:31:16.997Z,100125.13
2022-11-27T02:33:45.576Z,100130.25
2022-11-27T02:36:16.876Z,100137.19
2022-11-27T02:38:52.354Z,100133.13
2022-11-27T02:41:26.642Z,100128.94
2022-11-27T02:43:54.439Z,100128.66
2022-11-27T02:46:21.722Z,100117.56
2022-11-27T02:49:13.378Z,100121.09
2022-11-27T02:51:43.630Z,100142.94
2022-11-27T02:54:14.888Z,100131.81
2022-11-27T02:56:43.016Z,100146.88
2022-11-27T02:59:12.902Z,100143.88
2022-11-27T03:01:44.266Z,100139.94
2022-11-27T03:04:14.985Z,100145.09
2022-11-27T03:06:46.487Z,100145.09
2022-11-27T03:09:26.590Z,100147.34
2022-11-27T03:11:54.383Z,100149.88
2022-11-27T03:14:24.638Z,100153.59
2022-11-27T03:17:17.842Z,100141.44
2022-11-27T03:20:00.590Z,100146.50
2022-11-27T03:22:28.485Z,100141.44
2022-11-27T03:24:55.415Z,100125.19
2022-11-27T03:27:30.373Z,100141.06
2022-11-27T03:29:59.513Z,100139.75
2022-11-27T03:32:27.550Z,100135.44
2022-11-27T03:34:55.016Z,100133.59
2022-11-27T03:37:22.504Z,100123.78
2022-11-27T03:39:49.518Z,100128.91
2022-11-27T03:42:22.844Z,100127.31
2022-11-27T03:44:58.630Z,100130.41
2022-11-27T03:47:34.453Z,100127.81
2022-11-27T03:50:19.213Z,100129.50
2022-11-27T03:53:07.535Z,100133.88
2022-11-27T03:55:42.833Z,100130.34
2022-11-27T03:58:20.291Z,100139.50
2022-11-27T04:00:49.192Z,100136.41
2022-11-27T04:03:24.053Z,100143.53
2022-11-27T04:05:50.711Z,100143.34
2022-11-27T04:08:17.522Z,100146.72
2022-11-27T04:10:44.238Z,100154.53
2022-11-27T04:13:10.970Z,100156.31
2022-11-27T04:15:37.989Z,100149.19
2022-11-27T04:18:04.745Z,100154.91
2022-11-27T04:20:31.459Z,100151.72
2022-11-27T04:22:58.152Z,100165.59
2022-11-27T04:25:25.287Z,100164.38
2022-11-27T04:27:51.981Z,100162.69
2022-11-27T04:30:19.164Z,100166.81
2022-11-27T04:32:45.834Z,100163.88
2022-11-27T04:35:12.487Z,100164.38
2022-11-27T04:37:39.189Z,100164.53
2022-11-27T04:40:06.710Z,100163.88
2022-11-27T04:42:33.366Z,100171.84
2022-11-27T04:45:00.365Z,100170.53
2022-11-27T04:47:27.119Z,100166.59
2022-11-27T04:49:53.773Z,100176.59
2022-11-27T04:52:20.510Z,100177.44
2022-11-27T04:54:47.327Z,100175.13
2022-11-27T04:57:14.139Z,100186.13
2022-11-27T04:59:41.056Z,100188.50
2022-11-27T05:02:07.854Z,100189.31
2022-11-27T05:04:34.708Z,100189.16
2022-11-27T05:07:01.347Z,100195.22
2022-11-27T05:09:28.013Z,100207.16
2022-11-27T05:11:55.012Z,100202.56
2022-11-27T05:14:24.258Z,100204.97
2022-11-27T05:16:52.482Z,100196.69
2022-11-27T05:19:20.655Z,100204.28
2022-11-27T05:21:48.345Z,100208.72
2022-11-27T05:24:16.403Z,100219.94
2022-11-27T05:26:43.723Z,100213.84
2022-11-27T05:29:10.790Z,100211.13
2022-11-27T05:31:37.735Z,100210.84
2022-11-27T05:34:04.937Z,100216.25
2022-11-27T05:36:31.851Z,100221.56
2022-11-27T05:39:00.825Z,100221.72
2022-11-27T05:41:27.653Z,100225.16
2022-11-27T05:43:54.326Z,100224.69
2022-11-27T05:46:22.960Z,100235.38
2022-11-27T05:48:50.265Z,100222.22
2022-11-27T05:51:17.802Z,100218.34
2022-11-27T05:53:45.086Z,100219.91
2022-11-27T05:56:17.582Z,100223.81
2022-11-27T05:58:46.304Z,100227.91
2022-11-27T06:01:14.787Z,100230.13
2022-11-27T06:03:41.530Z,100226.75
2022-11-27T06:06:19.832Z,100230.84
2022-11-27T06:08:47.322Z,100249.13
2022-11-27T06:11:17.084Z,100246.09
2022-11-27T06:13:44.493Z,100225.47
2022-11-27T06:16:23.275Z,100219.41
2022-11-27T06:18:51.879Z,100227.69
2022-11-27T06:21:19.161Z,100223.50
2022-11-27T06:23:46.073Z,100225.50
2022-11-27T06:26:16.770Z,100231.63
2022-11-27T06:28:44.193Z,100219.16
2022-11-27T06:31:17.697Z,100218.66
2022-11-27T06:33:45.537Z,100225.25
2022-11-27T06:36:12.252Z,100215.63
2022-11-27T06:38:39.527Z,100232.41
2022-11-27T06:41:11.021Z,100224.28
2022-11-27T06:43:38.117Z,100233.06
2022-11-27T06:46:06.643Z,100229.03
2022-11-27T06:48:34.308Z,100225.00
2022-11-27T06:51:05.198Z,100231.41
2022-11-27T06:53:33.584Z,100241.94
2022-11-27T06:56:03.015Z,100239.22
2022-11-27T06:58:31.330Z,100243.31
2022-11-27T07:01:02.760Z,100247.00
2022-11-27T07:03:30.137Z,100245.31
2022-11-27T07:06:00.809Z,100231.13
2022-11-27T07:08:28.235Z,100236.53
2022-11-27T07:11:00.896Z,100236.19
2022-11-27T07:13:29.465Z,100232.31
2022-11-27T07:15:57.758Z,100216.09
2022-11-27T07:18:24.412Z,100208.16
2022-11-27T07:20:56.236Z,100218.63
2022-11-27T07:23:23.524Z,100230.47
2022-11-27T07:25:50.187Z,100216.97
2022-11-27T07:28:18.984Z,100224.75
2022-11-27T07:30:46.105Z,100222.88
2022-11-27T07:33:12.832Z,100233.19
2022-11-27T07:35:39.690Z,100237.94
2022-11-27T07:38:06.326Z,100238.44
2022-11-27T07:40:48.203Z,100223.75
2022-11-27T07:43:14.955Z,100214.31
2022-11-27T07:45:41.697Z,100226.63
2022-11-27T07:48:08.391Z,100231.19
2022-11-27T07:50:35.046Z,100231.53
2022-11-27T07:53:01.718Z,100236.94
2022-11-27T07:55:28.356Z,100238.97
2022-11-27T07:57:55.017Z,100234.56
2022-11-27T08:00:21.959Z,100238.31
2022-11-27T08:02:48.601Z,100237.63
2022-11-27T08:05:15.366Z,100246.75
2022-11-27T08:07:42.316Z,100254.19
2022-11-27T08:10:09.353Z,100254.84
2022-11-27T08:12:36.017Z,100254.84
2022-11-27T08:15:05.055Z,100253.84
2022-11-27T08:17:31.862Z,100253.84
2022-11-27T08:19:58.552Z,100251.66
2022-11-27T08:22:25.643Z,100241.19
2022-11-27T08:24:52.958Z,100240.84
2022-11-27T08:27:19.608Z,100238.31
2022-11-27T08:29:47.840Z,100239.84
2022-11-27T08:32:14.762Z,100231.72
2022-11-27T08:34:41.697Z,100239.50
2022-11-27T08:37:08.790Z,100230.53
2022-11-27T08:39:35.559Z,100243.03
2022-11-27T08:42:02.231Z,100248.78
2022-11-27T08:44:28.925Z,100243.22
2022-11-27T08:46:55.601Z,100241.69
2022-11-27T08:49:22.286Z,100251.16
2022-11-27T08:51:48.941Z,100249.13
2022-11-27T08:54:15.592Z,100234.75
2022-11-27T08:56:42.685Z,100229.34
2022-11-27T08:59:09.405Z,100221.91
2022-11-27T09:01:36.146Z,100218.19
2022-11-27T09:04:03.288Z,100210.94
2022-11-27T09:06:31.710Z,100218.84
2022-11-27T09:09:00.067Z,100221.38
2022-11-27T09:11:29.221Z,100222.41
2022-11-27T09:13:55.853Z,100223.59
2022-11-27T09:16:22.955Z,100222.41
2022-11-27T09:18:51.613Z,100221.22
2022-11-27T09:21:20.590Z,100214.59
2022-11-27T09:23:47.528Z,100213.59
2022-11-27T09:26:17.758Z,100233.88
2022-11-27T09:28:44.864Z,100221.00
2022-11-27T09:31:14.267Z,100220.84
2022-11-27T09:33:41.972Z,100209.50
2022-11-27T09:36:13.083Z,100214.56
2022-11-27T09:38:39.975Z,100214.22
2022-11-27T09:41:15.782Z,100220.31
2022-11-27T09:43:49.356Z,100217.22
2022-11-27T09:46:25.270Z,100208.13
2022-11-27T09:48:53.022Z,100203.88
2022-11-27T09:51:28.540Z,100204.69
2022-11-27T09:54:19.995Z,100203.81
2022-11-27T09:56:50.222Z,100205.34
2022-11-27T09:59:22.520Z,100215.44
2022-11-27T10:01:51.020Z,100224.91
2022-11-27T10:04:20.025Z,100227.25
2022-11-27T10:07:22.321Z,100228.22
2022-11-27T10:10:10.729Z,100219.41
2022-11-27T10:12:52.370Z,100226.00
2022-11-27T10:15:35.567Z,100219.19
2022-11-27T10:18:24.156Z,100225.44
2022-11-27T10:21:23.019Z,100230.13
2022-11-27T10:24:19.500Z,100227.25
2022-11-27T10:26:47.886Z,100236.41
2022-11-27T10:29:34.817Z,100226.06
2022-11-27T10:35:24.412Z,100243.47
2022-11-27T10:38:07.477Z,100246.69
2022-11-27T10:40:46.834Z,100258.66
2022-11-27T10:43:18.384Z,100250.03
2022-11-27T10:46:14.617Z,100247.84
2022-11-27T10:48:41.392Z,100244.94
2022-11-27T10:51:17.169Z,100240.19
2022-11-27T10:53:44.886Z,100231.94
2022-11-27T10:56:54.280Z,100242.91
2022-11-27T10:59:34.423Z,100236.28
2022-11-27T11:02:03.585Z,100235.34
2022-11-27T11:04:38.009Z,100227.63
2022-11-27T11:07:24.763Z,100228.59
2022-11-27T11:09:52.636Z,100212.69
2022-11-27T11:12:21.674Z,100209.44
2022-11-27T11:14:57.207Z,100200.66
2022-11-27T11:17:30.798Z,100192.00
2022-11-27T11:19:57.635Z,100200.47
2022-11-27T11:22:24.702Z,100190.28
2022-11-27T11:24:54.877Z,100180.59
2022-11-27T11:27:29.810Z,100170.69
2022-11-27T11:30:02.227Z,100175.00
2022-11-27T11:32:30.357Z,100166.03
2022-11-27T11:35:01.331Z,100164.81
2022-11-27T11:37:31.024Z,100159.09
2022-11-27T11:40:00.930Z,100147.22
2022-11-27T11:42:33.432Z,100138.06
2022-11-27T11:45:13.361Z,100148.72
2022-11-27T11:48:03.624Z,100152.38
2022-11-27T11:50:35.119Z,100145.09
2022-11-27T11:53:19.989Z,100135.75
2022-11-27T11:56:00.827Z,100142.00
2022-11-27T11:58:46.150Z,100142.88
2022-11-27T12:01:45.100Z,100146.72
2022-11-27T12:04:40.161Z,100138.56
2022-11-27T12:07:18.983Z,100145.66
2022-11-27T12:10:14.774Z,100152.13
2022-11-27T12:12:57.351Z,100146.50
2022-11-27T12:15:39.710Z,100146.88
2022-11-27T12:18:26.473Z,100146.72
2022-11-27T12:21:15.532Z,100151.47
2022-11-27T12:23:49.606Z,100146.41
2022-11-27T12:26:28.569Z,100141.16
2022-11-27T12:29:01.329Z,100144.19
2022-11-27T12:31:53.038Z,100145.00
2022-11-27T12:34:38.484Z,100142.56
2022-11-27T12:37:22.354Z,100130.63
2022-11-27T12:40:04.810Z,100134.81
2022-11-27T12:43:01.344Z,100130.72
2022-11-27T12:45:33.714Z,100118.03
2022-11-27T12:48:50.491Z,100119.03
2022-11-27T12:51:23.822Z,100116.16
2022-11-27T12:54:18.463Z,100120.91
2022-11-27T12:56:48.566Z,100111.38
2022-11-27T12:59:22.679Z,100105.31
2022-11-27T13:02:09.641Z,100103.91
2022-11-27T13:04:52.718Z,100112.88
2022-11-27T13:07:24.150Z,100116.63
2022-11-27T13:09:57.143Z,100105.13
2022-11-27T13:12:35.065Z,100101.38
2022-11-27T13:15:07.650Z,100093.25
2022-11-27T13:17:40.210Z,100098.13
2022-11-27T13:20:15.638Z,100098.13
2022-11-27T13:22:42.913Z,100096.34
2022-11-27T13:25:14.870Z,100095.13
2022-11-27T13:27:46.180Z,100085.69
2022-11-27T13:30:33.787Z,100081.09
2022-11-27T13:33:02.046Z,100077.91
2022-11-27T13:35:32.142Z,100070.91
2022-11-27T13:38:24.547Z,100052.50
2022-11-27T13:40:53.550Z,100056.06
2022-11-27T13:43:32.673Z,100060.16
2022-11-27T13:46:17.930Z,100058.28
2022-11-27T13:48:52.162Z,100059.34
2022-11-27T13:51:28.348Z,100066.53
2022-11-27T13:54:10.810Z,100063.81
2022-11-27T13:56:37.990Z,100064.47
2022-11-27T13:59:22.671Z,100045.50
2022-11-27T14:02:00.845Z,100046.34
2022-11-27T14:04:28.740Z,100042.59
2022-11-27T14:07:07.259Z,100043.63
2022-11-27T14:09:41.755Z,100037.38
2022-11-27T14:12:51.807Z,100029.53
2022-11-27T14:15:18.431Z,100029.91
2022-11-27T14:17:48.008Z,100031.56
2022-11-27T14:20:17.684Z,100033.25
2022-11-27T14:23:10.422Z,100029.41
2022-11-27T14:25:37.479Z,100027.53
2022-11-27T14:28:17.140Z,100030.66
2022-11-27T14:30:48.749Z,100018.88
2022-11-27T14:33:26.074Z,100018.94
2022-11-27T14:35:58.132Z,100011.41
2022-11-27T14:38:26.170Z,100017.19
2022-11-27T14:40:54.370Z,100012.81
2022-11-27T14:43:28.086Z,100004.16
2022-11-27T14:45:58.253Z,100002.00
2022-11-27T14:48:26.937Z,99991.75
2022-11-27T14:50:55.298Z,99988.94
2022-11-27T14:53:24.556Z,99987.63
2022-11-27T14:55:54.342Z,99988.00
2022-11-27T14:58:25.056Z,99992.09
2022-11-27T15:00:56.581Z,99981.66
2022-11-27T15:03:25.633Z,99981.19
2022-11-27T15:06:02.254Z,99989.47
2022-11-27T15:08:31.149Z,99986.88
2022-11-27T15:10:59.230Z,99989.09
2022-11-27T15:13:27.248Z,99987.78
2022-11-27T15:16:07.141Z,99990.69
2022-11-27T15:18:36.126Z,99976.84
2022-11-27T15:21:10.095Z,99976.38
2022-11-27T15:23:38.491Z,99965.28
2022-11-27T15:26:16.196Z,99971.88
2022-11-27T15:28:47.360Z,99970.75
2022-11-27T15:31:32.827Z,99953.03
2022-11-27T15:33:59.526Z,99952.63
2022-11-27T15:36:26.407Z,99936.19
2022-11-27T15:38:53.229Z,99936.56
2022-11-27T15:41:26.007Z,99938.44
2022-11-27T15:43:53.328Z,99936.09
2022-11-27T15:46:25.161Z,99933.56
2022-11-27T15:48:52.511Z,99931.94
2022-11-27T15:51:19.957Z,99933.81
2022-11-27T15:53:47.588Z,99935.88
2022-11-27T15:56:15.047Z,99931.28
2022-11-27T15:58:42.547Z,99934.06
2022-11-27T16:01:09.844Z,99944.88
2022-11-27T16:03:37.114Z,99942.69
2022-11-27T16:06:08.940Z,99945.59
2022-11-27T16:08:36.170Z,99940.56
2022-11-27T16:11:07.284Z,99941.72
2022-11-27T16:13:34.186Z,99932.78
2022-11-27T16:16:03.000Z,99927.78
2022-11-27T16:18:30.977Z,99917.66
2022-11-27T16:21:05.797Z,99924.09
2022-11-27T16:23:33.168Z,99926.50
2022-11-27T16:26:00.711Z,99924.13
2022-11-27T16:28:28.521Z,99920.97
2022-11-27T16:31:00.151Z,99915.09
2022-11-27T16:33:31.900Z,99914.44
2022-11-27T16:36:10.135Z,99913.72
2022-11-27T16:38:37.049Z,99907.66
2022-11-27T16:41:06.729Z,99901.59
2022-11-27T16:43:38.932Z,99900.13
2022-11-27T16:46:07.607Z,99898.63
2022-11-27T16:48:36.326Z,99900.28
2022-11-27T16:51:14.738Z,99892.56
2022-11-27T16:53:44.000Z,99886.47
2022-11-27T16:56:12.092Z,99886.84
2022-11-27T16:58:41.474Z,99883.66
2022-11-27T17:01:09.655Z,99880.13
2022-11-27T17:03:37.696Z,99871.34
2022-11-27T17:06:12.154Z,99869.66
2022-11-27T17:08:39.198Z,99865.66
2022-11-27T17:11:18.125Z,99863.13
2022-11-27T17:13:45.762Z,99862.59
2022-11-27T17:16:12.665Z,99859.22
2022-11-27T17:18:40.502Z,99851.47
2022-11-27T17:21:12.622Z,99852.50
2022-11-27T17:23:43.156Z,99857.25
2022-11-27T17:26:11.406Z,99854.22
2022-11-27T17:28:38.320Z,99855.94
2022-11-27T17:31:14.070Z,99849.19
2022-11-27T17:33:40.762Z,99841.94
2022-11-27T17:36:07.884Z,99835.00
2022-11-27T17:38:34.748Z,99841.28
2022-11-27T17:41:06.761Z,99835.38
2022-11-27T17:43:34.663Z,99822.91
2022-11-27T17:46:01.970Z,99822.06
2022-11-27T17:48:28.737Z,99820.56
2022-11-27T17:50:55.441Z,99822.41
2022-11-27T17:53:22.119Z,99828.28
2022-11-27T17:55:48.748Z,99826.97
2022-11-27T17:58:15.486Z,99815.84
2022-11-27T18:00:42.565Z,99822.94
2022-11-27T18:03:09.478Z,99815.19
2022-11-27T18:05:37.821Z,99813.53
2022-11-27T18:08:05.609Z,99804.56
2022-11-27T18:10:35.366Z,99804.78
2022-11-27T18:13:02.080Z,99805.28
2022-11-27T18:15:28.905Z,99805.13
2022-11-27T18:17:55.568Z,99809.19
2022-11-27T18:20:22.317Z,99803.97
2022-11-27T18:22:49.508Z,99806.00
2022-11-27T18:25:16.334Z,99809.91
2022-11-27T18:27:43.102Z,99808.22
2022-11-27T18:30:10.726Z,99811.06
2022-11-27T18:32:38.150Z,99808.56
2022-11-27T18:35:06.026Z,99806.06
2022-11-27T18:37:35.009Z,99806.06
2022-11-27T18:40:01.849Z,99799.78
2022-11-27T18:42:30.476Z,99810.09
2022-11-27T18:44:57.225Z,99804.91
2022-11-27T18:47:23.939Z,99804.19
2022-11-27T18:49:50.685Z,99800.00
2022-11-27T18:52:17.523Z,99800.00
2022-11-27T18:54:44.500Z,99800.53
2022-11-27T18:57:11.501Z,99796.81
2022-11-27T18:59:38.751Z,99790.75
2022-11-27T19:02:05.887Z,99791.78
2022-11-27T19:04:35.861Z,99788.22
2022-11-27T19:07:02.883Z,99781.34
2022-11-27T19:09:29.691Z,99792.28
2022-11-27T19:11:56.407Z,99785.41
2022-11-27T19:14:23.074Z,99781.00
2022-11-27T19:16:50.938Z,99779.53
2022-11-27T19:22:08.662Z,99777.00
2022-11-27T19:24:35.844Z,99783.38
2022-11-27T19:27:02.724Z,99780.03
2022-11-27T19:29:29.441Z,99784.09
2022-11-27T19:31:58.399Z,99782.06
2022-11-27T19:34:25.118Z,99777.38
2022-11-27T19:36:53.051Z,99778.19
2022-11-27T19:39:19.874Z,99780.41
2022-11-27T19:41:46.711Z,99776.88
2022-11-27T19:44:13.607Z,99771.66
2022-11-27T19:46:41.294Z,99780.09
2022-11-27T19:49:13.465Z,99773.19
2022-11-27T19:51:40.366Z,99769.66
2022-11-27T19:54:10.290Z,99778.44
2022-11-27T19:56:39.719Z,99777.91
2022-11-27T19:59:07.098Z,99757.88
2022-11-27T20:01:33.865Z,99772.56
2022-11-27T20:04:02.128Z,99774.75
2022-11-27T20:06:28.994Z,99766.81
2022-11-27T20:09:00.120Z,99766.00
2022-11-27T20:11:32.646Z,99761.31
2022-11-27T20:14:01.224Z,99767.84
2022-11-27T20:16:28.275Z,99768.22
2022-11-27T20:18:55.372Z,99765.03
2022-11-27T20:21:24.473Z,99773.94
2022-11-27T20:23:52.674Z,99777.16
2022-11-27T20:26:22.297Z,99777.81
2022-11-27T20:28:50.324Z,99779.19
2022-11-27T20:31:22.377Z,99776.84
2022-11-27T20:33:49.476Z,99772.63
2022-11-27T20:36:18.650Z,99766.41
2022-11-27T20:38:45.653Z,99767.06
2022-11-27T20:41:15.066Z,99769.09
2022-11-27T20:43:43.163Z,99756.63
2022-11-27T20:46:12.291Z,99764.72
2022-11-27T20:48:39.264Z,99769.75
2022-11-27T20:51:15.565Z,99764.06
2022-11-27T20:53:43.804Z,99764.69
2022-11-27T20:56:12.119Z,99766.03
2022-11-27T20:58:40.493Z,99768.38
2022-11-27T21:01:37.893Z,99780.19
2022-11-27T21:04:10.243Z,99767.03
2022-11-27T21:06:43.525Z,99773.44
2022-11-27T21:09:10.844Z,99776.63
2022-11-27T21:11:37.545Z,99775.78
2022-11-27T21:14:09.745Z,99762.84
2022-11-27T21:16:38.830Z,99765.84
2022-11-27T21:19:07.549Z,99758.44
2022-11-27T21:21:34.778Z,99754.72
2022-11-27T21:24:01.615Z,99752.03
2022-11-27T21:26:28.784Z,99749.50
2022-11-27T21:28:55.896Z,99758.09
2022-11-27T21:31:25.466Z,99745.66
2022-11-27T21:33:57.308Z,99746.19
2022-11-27T21:36:26.333Z,99747.84
2022-11-27T21:38:53.208Z,99746.88
2022-11-27T21:41:20.417Z,99736.94
2022-11-27T21:43:48.853Z,99731.41
2022-11-27T21:46:18.579Z,99733.72
2022-11-27T21:48:49.418Z,99735.59
2022-11-27T21:51:17.323Z,99734.44
2022-11-27T21:53:46.008Z,99723.66
2022-11-27T21:56:15.679Z,99723.66
2022-11-27T21:58:42.889Z,99704.31
2022-11-27T22:01:12.502Z,99705.34
2022-11-27T22:03:42.570Z,99707.19
2022-11-27T22:06:17.867Z,99706.69
2022-11-27T22:08:46.546Z,99701.81
2022-11-27T22:11:15.741Z,99701.81
2022-11-27T22:13:42.758Z,99700.44
2022-11-27T22:16:30.078Z,99706.88
2022-11-27T22:18:58.545Z,99696.78
2022-11-27T22:21:27.803Z,99697.59
2022-11-27T22:23:54.877Z,99700.44
2022-11-27T22:26:23.143Z,99700.44
2022-11-27T22:28:50.025Z,99699.78
2022-11-27T22:31:24.141Z,99697.09
2022-11-27T22:33:51.140Z,99700.09
2022-11-27T22:36:26.049Z,99709.88
2022-11-27T22:38:54.556Z,99715.94
2022-11-27T22:41:23.872Z,99714.94
2022-11-27T22:43:51.252Z,99708.03
2022-11-27T22:46:26.810Z,99707.03
2022-11-27T22:48:55.125Z,99705.50
2022-11-27T22:51:22.542Z,99695.41
2022-11-27T22:53:49.403Z,99695.41
2022-11-27T22:56:16.235Z,99694.91
2022-11-27T22:58:43.337Z,99685.16
2022-11-27T23:01:15.072Z,99690.19
2022-11-27T23:03:41.899Z,99690.53
2022-11-27T23:06:16.375Z,99676.75
2022-11-27T23:08:44.710Z,99690.69
2022-11-27T23:11:20.323Z,99692.72
2022-11-27T23:13:49.846Z,99690.50
2022-11-27T23:16:17.359Z,99685.59
2022-11-27T23:18:44.438Z,99681.72
2022-11-27T23:21:15.612Z,99684.41
2022-11-27T23:23:43.214Z,99672.47
2022-11-27T23:26:18.076Z,99670.81
2022-11-27T23:28:45.850Z,99670.28
2022-11-27T23:31:33.869Z,99672.97
2022-11-27T23:34:02.424Z,99667.75
2022-11-27T23:36:30.551Z,99667.09
2022-11-27T23:39:00.109Z,99663.72
2022-11-27T23:41:26.898Z,99669.94
2022-11-27T23:43:54.403Z,99664.41
2022-11-27T23:46:26.811Z,99663.38
2022-11-27T23:48:55.065Z,99664.41
2022-11-27T23:51:27.020Z,99654.31
2022-11-27T23:53:54.424Z,99645.94
2022-11-27T23:56:26.603Z,99650.44
2022-11-27T23:58:54.951Z,99655.34
